createdAt,value
2019-02-09T00:01:06.577Z,38.19
2019-02-09T00:03:36.351Z,38.21
2019-02-09T00:06:06.192Z,38.14
2019-02-09T00:08:36.010Z,38.13
2019-02-09T01:35:22.198Z,38.76
2019-02-09T01:37:52.322Z,38.77
2019-02-09T01:40:23.487Z,38.85
2019-02-09T01:42:53.247Z,38.68
2019-02-09T01:45:24.735Z,38.68
2019-02-09T01:47:54.650Z,38.76
2019-02-09T01:50:24.714Z,38.75
2019-02-09T01:52:54.415Z,38.85
2019-02-09T01:55:24.907Z,38.92
2019-02-09T01:57:54.773Z,38.90
2019-02-09T02:00:25.963Z,38.78
2019-02-09T02:02:55.613Z,38.82
2019-02-09T02:05:25.658Z,38.79
2019-02-09T02:07:55.405Z,38.67
2019-02-09T02:10:29.936Z,38.72
2019-02-09T02:12:59.605Z,38.70
2019-02-09T02:15:29.427Z,38.71
2019-02-09T02:17:59.284Z,38.66
2019-02-09T02:20:29.634Z,38.65
2019-02-09T02:22:59.254Z,38.63
2019-02-09T02:25:28.952Z,38.55
2019-02-09T02:27:58.691Z,38.61
2019-02-09T02:30:32.999Z,38.52
2019-02-09T02:33:02.654Z,38.54
2019-02-09T02:35:32.293Z,38.53
2019-02-09T02:38:01.941Z,38.58
2019-02-09T02:40:31.656Z,38.61
2019-02-09T02:43:01.359Z,38.55
2019-02-09T02:45:30.957Z,38.54
2019-02-09T02:48:00.778Z,38.53
2019-02-09T02:50:30.398Z,38.50
2019-02-09T02:53:00.188Z,38.53
2019-02-09T02:55:29.702Z,38.50
2019-02-09T02:57:59.420Z,38.55
2019-02-09T03:00:32.872Z,38.47
2019-02-09T03:03:01.904Z,38.45
2019-02-09T03:05:31.588Z,38.34
2019-02-09T03:08:01.274Z,38.38
2019-02-09T03:10:31.109Z,38.36
2019-02-09T03:13:00.750Z,38.43
2019-02-09T03:15:31.118Z,38.29
2019-02-09T03:18:00.928Z,38.38
2019-02-09T03:20:30.585Z,38.32
2019-02-09T03:23:00.284Z,38.34
2019-02-09T03:25:31.673Z,38.37
2019-02-09T03:28:01.354Z,38.36
2019-02-09T03:30:31.113Z,38.26
2019-02-09T03:33:00.777Z,38.26
2019-02-09T03:35:30.471Z,38.23
2019-02-09T03:38:00.245Z,38.35
2019-02-09T03:40:30.008Z,38.23
2019-02-09T03:42:59.713Z,38.28
2019-02-09T03:45:31.820Z,38.29
2019-02-09T03:48:01.671Z,38.27
2019-02-09T03:50:32.024Z,38.37
2019-02-09T03:53:01.708Z,38.29
2019-02-09T03:55:31.551Z,38.24
2019-02-09T03:58:01.201Z,38.24
2019-02-09T04:00:31.267Z,38.25
2019-02-09T04:03:01.058Z,38.23
2019-02-09T04:05:30.814Z,38.25
2019-02-09T04:08:00.504Z,38.22
2019-02-09T04:10:30.115Z,38.31
2019-02-09T04:12:59.852Z,38.33
2019-02-09T04:15:29.537Z,38.42
2019-02-09T04:17:59.164Z,38.22
2019-02-09T04:20:28.997Z,38.20
2019-02-09T04:22:58.675Z,38.25
2019-02-09T04:25:28.483Z,38.29
2019-02-09T04:27:58.203Z,38.21
2019-02-09T04:30:29.502Z,38.21
2019-02-09T04:32:59.186Z,38.19
2019-02-09T04:35:28.777Z,38.14
2019-02-09T04:37:58.584Z,38.08
2019-02-09T04:40:30.055Z,38.19
2019-02-09T04:42:59.759Z,38.15
2019-02-09T04:45:29.359Z,38.17
2019-02-09T04:47:59.078Z,38.21
2019-02-09T04:50:28.704Z,38.15
2019-02-09T04:52:58.409Z,38.09
2019-02-09T04:55:28.116Z,38.07
2019-02-09T04:57:58.005Z,38.05
2019-02-09T05:00:29.628Z,38.05
2019-02-09T05:02:59.323Z,38.12
2019-02-09T05:05:29.158Z,38.05
2019-02-09T05:07:58.902Z,38.01
2019-02-09T05:10:28.517Z,37.95
2019-02-09T05:12:58.519Z,38.17
2019-02-09T05:15:28.310Z,38.04
2019-02-09T05:17:58.291Z,38.03
2019-02-09T05:20:28.288Z,38.05
2019-02-09T05:22:57.993Z,38.02
2019-02-09T05:25:27.601Z,38.09
2019-02-09T05:27:57.299Z,38.00
2019-02-09T05:30:28.101Z,38.13
2019-02-09T05:33:01.257Z,38.22
2019-02-09T05:35:31.141Z,38.22
2019-02-09T05:38:00.902Z,38.08
2019-02-09T05:40:30.665Z,38.03
2019-02-09T05:43:00.370Z,37.59
2019-02-09T05:45:31.335Z,37.39
2019-02-09T05:48:00.951Z,37.04
2019-02-09T05:50:30.643Z,36.79
2019-02-09T05:53:00.261Z,36.35
2019-02-09T05:55:30.058Z,35.93
2019-02-09T05:57:59.815Z,35.80
2019-02-09T06:00:37.418Z,35.63
2019-02-09T06:03:06.981Z,35.20
2019-02-09T06:05:36.871Z,35.48
2019-02-09T06:08:06.941Z,35.46
2019-02-09T06:10:36.647Z,35.55
2019-02-09T06:13:06.273Z,35.75
2019-02-09T06:15:36.006Z,35.90
2019-02-09T06:18:05.746Z,36.03
2019-02-09T06:20:35.395Z,36.01
2019-02-09T06:23:05.208Z,36.19
2019-02-09T06:25:34.952Z,36.31
2019-02-09T06:28:04.591Z,36.35
2019-02-09T06:30:34.310Z,36.09
2019-02-09T06:33:04.037Z,36.54
2019-02-09T06:35:33.691Z,36.77
2019-02-09T06:38:03.442Z,37.27
2019-02-09T06:40:33.187Z,36.98
2019-02-09T06:43:03.894Z,36.78
2019-02-09T06:45:33.677Z,36.89
2019-02-09T06:48:23.864Z,36.89
2019-02-09T06:50:54.014Z,36.82
2019-02-09T07:19:58.792Z,36.44
2019-02-09T07:22:29.303Z,36.81
2019-02-09T07:24:58.978Z,36.90
2019-02-09T07:27:28.899Z,36.99
2019-02-09T07:29:58.715Z,36.91
2019-02-09T07:32:28.496Z,36.83
2019-02-09T07:35:00.318Z,36.86
2019-02-09T07:37:30.007Z,36.89
2019-02-09T07:40:00.257Z,36.82
2019-02-09T07:42:29.989Z,36.76
2019-02-09T07:44:59.720Z,36.80
2019-02-09T07:47:29.736Z,36.82
2019-02-09T07:49:59.574Z,36.62
2019-02-09T07:52:29.176Z,36.61
2019-02-09T07:54:59.627Z,36.58
2019-02-09T08:16:56.685Z,36.72
2019-02-09T08:19:26.453Z,37.18
2019-02-09T08:21:56.160Z,37.21
2019-02-09T08:24:25.959Z,36.71
2019-02-09T08:26:55.715Z,37.30
2019-02-09T08:29:25.309Z,37.27
2019-02-09T08:31:55.084Z,37.29
2019-02-09T08:34:24.811Z,37.18
2019-02-09T08:36:54.687Z,37.14
2019-02-09T08:39:24.436Z,37.07
2019-02-09T08:41:54.256Z,37.06
2019-02-09T08:44:23.968Z,37.04
2019-02-09T08:46:53.663Z,37.00
2019-02-09T08:49:23.290Z,36.96
2019-02-09T08:51:53.644Z,36.94
2019-02-09T08:54:23.381Z,36.93
2019-02-09T08:56:53.153Z,36.99
2019-02-09T08:59:22.851Z,36.93
2019-02-09T09:01:52.709Z,36.94
2019-02-09T09:04:22.477Z,36.90
2019-02-09T09:06:52.200Z,36.88
2019-02-09T09:09:21.802Z,36.89
2019-02-09T09:11:51.656Z,36.89
2019-02-09T09:14:21.322Z,36.83
2019-02-09T09:16:51.107Z,36.69
2019-02-09T09:19:20.742Z,36.72
2019-02-09T09:21:50.434Z,36.69
2019-02-09T09:24:20.218Z,36.60
2019-02-09T09:26:49.972Z,36.61
2019-02-09T09:29:19.719Z,36.57
2019-02-09T09:31:49.533Z,36.55
2019-02-09T09:34:19.200Z,36.51
2019-02-09T09:36:48.875Z,36.47
2019-02-09T09:39:18.544Z,36.52
2019-02-09T09:41:48.431Z,36.44
2019-02-09T09:44:18.149Z,36.54
2019-02-09T09:46:47.842Z,36.34
2019-02-09T09:49:17.635Z,36.36
2019-02-09T09:51:47.275Z,36.31
2019-02-09T09:54:16.986Z,36.25
2019-02-09T09:56:46.797Z,36.25
2019-02-09T09:59:16.580Z,36.18
2019-02-09T10:01:46.327Z,36.16
2019-02-09T10:04:16.099Z,36.19
2019-02-09T10:06:45.839Z,36.17
2019-02-09T10:09:15.491Z,36.06
2019-02-09T10:11:45.399Z,36.10
2019-02-09T10:14:15.105Z,36.09
2019-02-09T10:16:44.896Z,36.09
2019-02-09T10:19:15.659Z,36.04
2019-02-09T10:21:45.293Z,35.87
2019-02-09T10:24:15.144Z,35.89
2019-02-09T10:26:44.791Z,35.86
2019-02-09T10:29:14.470Z,36.01
2019-02-09T10:31:44.241Z,35.81
2019-02-09T10:34:13.986Z,35.76
2019-02-09T10:36:43.735Z,35.58
2019-02-09T10:39:13.163Z,35.64
2019-02-09T10:41:43.175Z,35.66
2019-02-09T10:44:13.365Z,35.69
2019-02-09T10:46:43.960Z,35.59
2019-02-09T10:49:13.732Z,35.55
2019-02-09T10:51:43.527Z,35.44
2019-02-09T10:54:13.238Z,35.31
2019-02-09T10:56:43.043Z,35.24
2019-02-09T10:59:12.751Z,35.19
2019-02-09T11:01:42.562Z,35.14
2019-02-09T11:04:12.283Z,35.05
2019-02-09T11:06:41.904Z,35.09
2019-02-09T11:09:16.570Z,35.05
2019-02-09T11:11:46.249Z,35.06
2019-02-09T11:16:44.320Z,35.08
2019-02-09T11:19:14.114Z,35.03
2019-02-09T11:21:43.985Z,35.01
2019-02-09T11:24:13.641Z,35.12
2019-02-09T11:26:43.264Z,35.18
2019-02-09T11:29:12.960Z,35.06
2019-02-09T11:31:42.584Z,35.13
2019-02-09T11:34:12.426Z,35.13
2019-02-09T11:36:42.087Z,35.03
2019-02-09T11:39:11.800Z,35.07
2019-02-09T11:41:41.674Z,35.06
2019-02-09T11:44:11.439Z,35.03
2019-02-09T11:46:41.130Z,35.04
2019-02-09T11:49:10.976Z,35.04
2019-02-09T11:51:40.583Z,35.02
2019-02-09T11:54:10.192Z,35.03
2019-02-09T11:56:39.992Z,35.02
2019-02-09T11:59:09.619Z,35.00
2019-02-09T12:01:39.320Z,35.00
2019-02-09T12:04:08.931Z,35.01
2019-02-09T12:06:38.563Z,35.36
2019-02-09T12:09:09.965Z,35.59
2019-02-09T12:11:39.653Z,35.65
2019-02-09T12:14:09.488Z,35.69
2019-02-09T12:16:39.138Z,35.89
2019-02-09T12:19:08.813Z,35.89
2019-02-09T12:21:38.448Z,35.97
2019-02-09T12:24:08.239Z,36.00
2019-02-09T12:26:38.000Z,36.06
2019-02-09T12:29:07.655Z,35.96
2019-02-09T12:31:37.570Z,36.03
2019-02-09T12:34:07.293Z,36.12
2019-02-09T12:36:37.027Z,36.26
2019-02-09T12:39:09.741Z,36.91
2019-02-09T12:41:39.484Z,36.41
2019-02-09T12:44:09.103Z,36.61
2019-02-09T12:46:38.917Z,36.86
2019-02-09T12:49:08.540Z,37.03
2019-02-09T12:51:38.348Z,36.78
2019-02-09T12:54:07.970Z,32.71
2019-02-09T12:56:37.681Z,32.46
2019-02-09T12:59:14.617Z,34.63
2019-02-09T13:01:38.840Z,33.73
2019-02-09T13:04:08.560Z,33.31
2019-02-09T13:06:38.281Z,33.11
2019-02-09T13:09:09.594Z,32.31
2019-02-09T13:11:39.394Z,32.11
2019-02-09T13:14:09.167Z,32.05
2019-02-09T13:16:39.019Z,31.75
2019-02-09T13:19:08.699Z,31.42
2019-02-09T13:21:38.287Z,30.78
2019-02-09T13:24:07.965Z,30.85
2019-02-09T13:26:37.735Z,28.21
2019-02-09T13:29:07.430Z,29.15
2019-02-09T13:31:37.196Z,29.73
2019-02-09T13:34:06.938Z,29.31
2019-02-09T13:36:36.632Z,29.35
2019-02-09T13:39:08.623Z,29.30
2019-02-09T13:41:38.292Z,29.05
2019-02-09T13:44:08.150Z,28.99
2019-02-09T13:46:38.032Z,28.94
2019-02-09T13:49:07.644Z,28.51
2019-02-09T13:51:37.365Z,28.32
2019-02-09T13:54:06.905Z,28.60
2019-02-09T13:56:36.655Z,27.75
2019-02-09T13:59:06.510Z,28.87
2019-02-09T14:01:36.282Z,29.49
2019-02-09T14:04:05.907Z,28.98
2019-02-09T14:06:35.708Z,29.10
2019-02-09T14:09:07.205Z,28.62
2019-02-09T14:11:36.877Z,27.73
2019-02-09T14:14:06.572Z,29.12
2019-02-09T14:16:38.787Z,30.72
2019-02-09T14:19:07.748Z,31.41
2019-02-09T14:21:37.447Z,30.66
2019-02-09T14:24:07.293Z,31.37
2019-02-09T14:26:36.972Z,30.96
2019-02-09T14:29:06.723Z,31.02
2019-02-09T14:31:36.493Z,31.24
2019-02-09T14:34:06.467Z,31.37
2019-02-09T14:36:36.221Z,31.55
2019-02-09T14:39:10.786Z,31.69
2019-02-09T14:41:40.492Z,31.76
2019-02-09T14:44:10.227Z,31.96
2019-02-09T14:46:40.092Z,32.13
2019-02-09T14:49:09.797Z,32.26
2019-02-09T14:51:39.511Z,32.43
2019-02-09T14:54:09.138Z,32.55
2019-02-09T14:56:38.835Z,32.68
2019-02-09T14:59:08.463Z,32.82
2019-02-09T15:01:38.155Z,32.86
2019-02-09T15:04:07.883Z,32.91
2019-02-09T15:06:37.578Z,32.98
2019-02-09T15:09:08.510Z,33.01
2019-02-09T15:11:38.315Z,33.11
2019-02-09T15:14:08.033Z,33.16
2019-02-09T15:16:44.866Z,33.32
2019-02-09T15:19:14.765Z,33.40
2019-02-09T15:21:44.530Z,33.47
2019-02-09T15:24:14.177Z,33.57
2019-02-09T15:26:43.859Z,34.39
2019-02-09T15:29:13.495Z,35.11
2019-02-09T15:31:43.386Z,35.40
2019-02-09T15:34:13.212Z,35.45
2019-02-09T15:36:42.908Z,35.02
2019-02-09T15:39:12.575Z,34.52
2019-02-09T15:41:42.234Z,34.40
2019-02-09T15:44:11.896Z,34.51
2019-02-09T15:46:41.649Z,34.57
2019-02-09T15:49:11.395Z,35.43
2019-02-09T15:51:41.063Z,36.09
2019-02-09T15:54:10.776Z,36.29
2019-02-09T15:56:40.420Z,36.30
2019-02-09T15:59:10.096Z,36.08
2019-02-09T16:01:39.816Z,35.95
2019-02-09T16:04:09.456Z,35.44
2019-02-09T16:06:39.134Z,34.98
2019-02-09T16:09:09.649Z,34.85
2019-02-09T16:11:39.416Z,35.10
2019-02-09T16:14:09.205Z,34.92
2019-02-09T16:16:39.039Z,35.07
2019-02-09T16:19:08.725Z,35.22
2019-02-09T16:21:38.335Z,35.48
2019-02-09T16:24:08.131Z,34.92
2019-02-09T16:26:37.756Z,35.55
2019-02-09T16:29:07.485Z,35.50
2019-02-09T16:31:37.082Z,35.68
2019-02-09T16:34:06.777Z,35.94
2019-02-09T16:36:36.491Z,35.99
2019-02-09T16:39:08.291Z,36.01
2019-02-09T16:41:37.995Z,35.91
2019-02-09T16:44:07.659Z,35.72
2019-02-09T16:46:37.295Z,35.89
2019-02-09T16:49:06.988Z,36.12
2019-02-09T16:51:36.681Z,36.40
2019-02-09T16:54:06.541Z,36.54
2019-02-09T16:56:36.213Z,36.40
2019-02-09T16:59:05.854Z,36.53
2019-02-09T17:01:35.534Z,36.73
2019-02-09T17:04:05.496Z,37.05
2019-02-09T17:06:35.482Z,36.70
2019-02-09T17:09:07.294Z,36.74
2019-02-09T17:11:37.067Z,36.58
2019-02-09T17:14:06.966Z,36.57
2019-02-09T17:16:37.065Z,37.09
2019-02-09T17:19:07.037Z,34.93
2019-02-09T17:21:36.708Z,37.12
2019-02-09T17:24:08.268Z,36.93
2019-02-09T17:26:37.978Z,37.19
2019-02-09T17:29:07.716Z,37.46
2019-02-09T17:31:37.438Z,37.72
2019-02-09T17:34:07.154Z,37.51
2019-02-09T17:36:36.942Z,37.79
2019-02-09T17:39:07.959Z,37.90
2019-02-09T17:41:37.684Z,37.74
2019-02-09T17:44:08.664Z,37.96
2019-02-09T17:46:38.428Z,38.06
2019-02-09T17:49:08.073Z,38.42
2019-02-09T17:51:37.952Z,38.31
2019-02-09T17:54:07.604Z,38.10
2019-02-09T17:56:37.342Z,38.03
2019-02-09T17:59:07.107Z,38.13
2019-02-09T18:01:36.790Z,38.23
2019-02-09T18:04:06.426Z,38.50
2019-02-09T18:06:36.107Z,38.66
2019-02-09T18:09:08.110Z,38.75
2019-02-09T18:11:37.856Z,38.78
2019-02-09T18:14:07.568Z,38.87
2019-02-09T18:16:37.309Z,38.88
2019-02-09T18:19:07.073Z,38.89
2019-02-09T18:21:37.055Z,38.42
2019-02-09T18:24:07.022Z,38.50
2019-02-09T18:26:36.684Z,38.56
2019-02-09T18:29:06.494Z,38.54
2019-02-09T18:31:36.127Z,38.72
2019-02-09T18:34:06.044Z,38.68
2019-02-09T18:36:35.733Z,38.77
2019-02-09T18:39:09.795Z,38.65
2019-02-09T18:41:39.571Z,38.55
2019-02-09T18:44:09.366Z,38.83
2019-02-09T18:46:38.981Z,38.83
2019-02-09T18:49:08.889Z,38.71
2019-02-09T18:51:38.606Z,38.71
2019-02-09T18:54:08.368Z,38.75
2019-02-09T18:56:38.156Z,38.68
2019-02-09T18:59:07.817Z,37.64
2019-02-09T19:01:37.464Z,38.15
2019-02-09T19:04:07.239Z,38.33
2019-02-09T19:06:36.896Z,38.16
2019-02-09T19:09:08.857Z,38.34
2019-02-09T19:11:40.154Z,38.19
2019-02-09T19:14:09.869Z,37.77
2019-02-09T19:16:39.510Z,37.63
2019-02-09T19:19:09.184Z,37.54
2019-02-09T19:21:38.831Z,37.40
2019-02-09T19:24:08.807Z,37.43
2019-02-09T19:26:38.696Z,37.40
2019-02-09T19:29:08.445Z,37.41
2019-02-09T19:31:38.082Z,37.41
2019-02-09T19:34:07.913Z,37.38
2019-02-09T19:36:37.731Z,37.30
2019-02-09T19:39:09.916Z,37.32
2019-02-09T19:41:39.775Z,37.28
2019-02-09T19:44:09.612Z,37.30
2019-02-09T19:46:39.235Z,37.35
2019-02-09T19:49:08.976Z,37.44
2019-02-09T19:51:38.707Z,37.46
2019-02-09T19:54:08.444Z,37.41
2019-02-09T19:56:39.518Z,37.37
2019-02-09T19:59:09.277Z,37.32
2019-02-09T20:01:39.000Z,37.29
2019-02-09T20:04:08.693Z,37.32
2019-02-09T20:06:38.437Z,37.27
2019-02-09T20:09:09.642Z,37.33
2019-02-09T20:11:39.397Z,37.45
2019-02-09T20:14:09.174Z,37.57
2019-02-09T20:16:38.811Z,37.47
2019-02-09T20:19:08.517Z,37.51
2019-02-09T20:21:38.257Z,37.41
2019-02-09T20:24:07.924Z,37.47
2019-02-09T20:26:37.806Z,37.51
2019-02-09T20:29:07.542Z,37.62
2019-02-09T20:31:37.200Z,37.56
2019-02-09T20:34:06.867Z,37.58
2019-02-09T20:36:36.673Z,37.52
2019-02-09T20:39:08.709Z,37.56
2019-02-09T20:41:38.565Z,37.51
2019-02-09T20:44:08.203Z,37.51
2019-02-09T20:46:37.891Z,37.46
2019-02-09T20:49:07.693Z,37.45
2019-02-09T20:51:37.659Z,37.50
2019-02-09T20:54:07.322Z,37.51
2019-02-09T20:56:36.992Z,37.47
2019-02-09T20:59:06.735Z,37.46
2019-02-09T21:01:36.394Z,37.45
2019-02-09T21:04:06.059Z,37.55
2019-02-09T21:06:35.711Z,37.51
2019-02-09T21:09:07.810Z,37.48
2019-02-09T21:11:37.587Z,37.61
2019-02-09T21:14:07.188Z,37.59
2019-02-09T21:16:36.886Z,37.64
2019-02-09T21:19:06.690Z,37.60
2019-02-09T21:21:36.424Z,37.67
2019-02-09T21:24:07.377Z,37.63
2019-02-09T21:26:37.082Z,37.65
2019-02-09T21:29:06.770Z,37.65
2019-02-09T21:31:36.490Z,37.67
2019-02-09T21:34:06.179Z,37.67
2019-02-09T21:36:35.917Z,37.63
2019-02-09T21:39:09.447Z,37.72
2019-02-09T21:41:39.131Z,37.70
2019-02-09T21:44:08.805Z,37.74
2019-02-09T21:46:38.479Z,38.08
2019-02-09T21:49:08.329Z,38.07
2019-02-09T21:51:37.982Z,37.90
2019-02-09T21:54:07.648Z,37.94
2019-02-09T21:56:37.351Z,37.92
2019-02-09T21:59:07.169Z,37.91
2019-02-09T22:01:36.830Z,37.86
2019-02-09T22:04:06.502Z,37.91
2019-02-09T22:06:36.204Z,37.86
2019-02-09T22:09:07.341Z,37.89
2019-02-09T22:11:37.149Z,37.80
2019-02-09T22:14:07.210Z,37.81
2019-02-09T22:16:37.022Z,37.81
2019-02-09T22:19:06.689Z,37.78
2019-02-09T22:21:36.591Z,37.75
2019-02-09T22:24:06.330Z,37.82
2019-02-09T22:26:35.968Z,37.81
2019-02-09T22:29:05.658Z,37.71
2019-02-09T22:31:35.356Z,37.76
2019-02-09T22:34:05.097Z,37.81
2019-02-09T22:36:37.252Z,37.69
2019-02-09T22:39:08.439Z,37.77
2019-02-09T22:41:38.030Z,37.70
2019-02-09T22:44:07.847Z,37.62
2019-02-09T22:46:37.549Z,37.72
2019-02-09T22:49:07.230Z,37.60
2019-02-09T22:51:36.872Z,37.66
2019-02-09T22:54:06.853Z,37.66
2019-02-09T22:56:36.524Z,37.69
2019-02-09T22:59:06.275Z,37.76
2019-02-09T23:01:44.693Z,37.72
2019-02-09T23:04:38.893Z,37.80
2019-02-09T23:07:12.386Z,37.81
2019-02-09T23:09:42.189Z,37.78
2019-02-09T23:12:11.832Z,37.71
2019-02-09T23:14:41.607Z,37.76
2019-02-09T23:17:11.330Z,37.74
2019-02-09T23:19:41.038Z,37.72
2019-02-09T23:22:10.751Z,37.73
2019-02-09T23:24:40.466Z,37.78
2019-02-09T23:27:10.172Z,37.60
2019-02-09T23:29:39.801Z,37.63
2019-02-09T23:32:09.506Z,37.65
2019-02-09T23:34:39.121Z,37.55
2019-02-09T23:37:08.812Z,37.51
2019-02-09T23:39:38.434Z,37.52
2019-02-09T23:42:08.227Z,37.48
2019-02-09T23:44:37.854Z,37.44
2019-02-09T23:47:07.555Z,37.43
2019-02-09T23:49:37.323Z,37.42
2019-02-09T23:52:07.193Z,37.47
2019-02-09T23:54:36.879Z,37.55
2019-02-09T23:57:06.534Z,37.59
2019-02-09T23:59:36.201Z,37.58
